sensor_id;sensor_type;location;lat;lon;timestamp;pressure;altitude;pressure_sealevel;temperature;humidity
12757;BME280;31601;48.042;12.240;2023-03-13T00:00:20;95962.84;;;6.87;67.42
12757;BME280;31601;48.042;12.240;2023-03-13T00:02:46;95964.03;;;6.76;67.47
12757;BME280;31601;48.042;12.240;2023-03-13T00:05:15;95959.16;;;6.65;67.47
12757;BME280;31601;48.042;12.240;2023-03-13T00:07:42;95956.56;;;6.56;67.63
12757;BME280;31601;48.042;12.240;2023-03-13T00:10:09;95942.91;;;6.46;67.43
12757;BME280;31601;48.042;12.240;2023-03-13T00:12:35;95956.41;;;6.33;67.73
12757;BME280;31601;48.042;12.240;2023-03-13T00:15:02;95946.47;;;6.28;67.71
12757;BME280;31601;48.042;12.240;2023-03-13T00:17:28;95939.81;;;6.18;67.62
12757;BME280;31601;48.042;12.240;2023-03-13T00:19:55;95942.09;;;6.13;67.44
12757;BME280;31601;48.042;12.240;2023-03-13T00:22:23;95941.28;;;6.04;67.65
12757;BME280;31601;48.042;12.240;2023-03-13T00:24:50;95933.94;;;5.99;67.96
12757;BME280;31601;48.042;12.240;2023-03-13T00:27:16;95931.31;;;5.91;67.63
12757;BME280;31601;48.042;12.240;2023-03-13T00:29:42;95922.69;;;5.82;67.72
12757;BME280;31601;48.042;12.240;2023-03-13T00:32:09;95920.06;;;5.74;68.07
12757;BME280;31601;48.042;12.240;2023-03-13T00:34:35;95918.75;;;5.70;68.22
12757;BME280;31601;48.042;12.240;2023-03-13T00:37:02;95909.00;;;5.64;68.64
12757;BME280;31601;48.042;12.240;2023-03-13T00:39:30;95905.75;;;5.53;68.64
12757;BME280;31601;48.042;12.240;2023-03-13T00:41:56;95908.31;;;5.37;68.80
12757;BME280;31601;48.042;12.240;2023-03-13T00:44:23;95911.19;;;5.17;69.20
12757;BME280;31601;48.042;12.240;2023-03-13T00:46:49;95905.69;;;5.20;69.55
12757;BME280;31601;48.042;12.240;2023-03-13T00:49:15;95907.75;;;5.17;69.56
12757;BME280;31601;48.042;12.240;2023-03-13T00:51:42;95902.72;;;5.15;69.34
12757;BME280;31601;48.042;12.240;2023-03-13T00:54:08;95899.47;;;5.13;69.45
12757;BME280;31601;48.042;12.240;2023-03-13T00:56:36;95895.53;;;5.09;69.35
12757;BME280;31601;48.042;12.240;2023-03-13T00:59:02;95889.84;;;5.06;68.93
12757;BME280;31601;48.042;12.240;2023-03-13T01:01:31;95884.31;;;5.00;69.67
12757;BME280;31601;48.042;12.240;2023-03-13T01:03:59;95880.56;;;5.03;69.25
12757;BME280;31601;48.042;12.240;2023-03-13T01:06:28;95872.75;;;4.95;69.26
12757;BME280;31601;48.042;12.240;2023-03-13T01:08:55;95864.63;;;4.90;69.19
12757;BME280;31601;48.042;12.240;2023-03-13T01:11:23;95866.06;;;4.84;69.56
12757;BME280;31601;48.042;12.240;2023-03-13T01:13:54;95865.56;;;4.80;69.76
12757;BME280;31601;48.042;12.240;2023-03-13T01:16:21;95860.53;;;4.79;69.82
12757;BME280;31601;48.042;12.240;2023-03-13T01:18:50;95859.03;;;4.76;69.72
12757;BME280;31601;48.042;12.240;2023-03-13T01:21:17;95849.72;;;4.57;69.79
12757;BME280;31601;48.042;12.240;2023-03-13T01:23:44;95843.34;;;4.52;69.75
12757;BME280;31601;48.042;12.240;2023-03-13T01:26:11;95842.31;;;4.36;70.23
12757;BME280;31601;48.042;12.240;2023-03-13T01:28:38;95846.63;;;4.27;70.37
12757;BME280;31601;48.042;12.240;2023-03-13T01:31:13;95839.97;;;4.25;70.38
12757;BME280;31601;48.042;12.240;2023-03-13T01:33:40;95833.91;;;4.16;70.76
12757;BME280;31601;48.042;12.240;2023-03-13T01:36:07;95836.66;;;4.15;70.53
12757;BME280;31601;48.042;12.240;2023-03-13T01:38:34;95847.69;;;4.17;70.36
12757;BME280;31601;48.042;12.240;2023-03-13T01:41:00;95852.28;;;4.23;70.54
12757;BME280;31601;48.042;12.240;2023-03-13T01:43:29;95844.34;;;4.24;70.21
12757;BME280;31601;48.042;12.240;2023-03-13T01:45:59;95839.97;;;4.25;70.12
12757;BME280;31601;48.042;12.240;2023-03-13T01:48:35;95836.53;;;4.24;70.33
12757;BME280;31601;48.042;12.240;2023-03-13T01:51:07;95829.91;;;4.22;70.44
12757;BME280;31601;48.042;12.240;2023-03-13T01:53:36;95831.81;;;4.20;70.40
12757;BME280;31601;48.042;12.240;2023-03-13T01:56:05;95831.81;;;4.20;70.26
12757;BME280;31601;48.042;12.240;2023-03-13T01:58:34;95822.09;;;4.22;70.11
12757;BME280;31601;48.042;12.240;2023-03-13T02:01:03;95823.06;;;4.21;70.12
12757;BME280;31601;48.042;12.240;2023-03-13T02:03:32;95819.13;;;4.17;70.33
12757;BME280;31601;48.042;12.240;2023-03-13T02:06:01;95817.22;;;4.19;70.35
12757;BME280;31601;48.042;12.240;2023-03-13T02:08:32;95814.63;;;4.19;69.90
12757;BME280;31601;48.042;12.240;2023-03-13T02:11:09;95817.00;;;4.12;69.95
12757;BME280;31601;48.042;12.240;2023-03-13T02:13:38;95822.66;;;4.07;70.06
12757;BME280;31601;48.042;12.240;2023-03-13T02:16:05;95823.13;;;4.03;70.44
12757;BME280;31601;48.042;12.240;2023-03-13T02:18:35;95826.00;;;4.00;70.05
12757;BME280;31601;48.042;12.240;2023-03-13T02:21:09;95823.38;;;3.91;70.45
12757;BME280;31601;48.042;12.240;2023-03-13T02:23:41;95816.69;;;3.89;70.31
12757;BME280;31601;48.042;12.240;2023-03-13T02:26:12;95808.91;;;3.89;70.32
12757;BME280;31601;48.042;12.240;2023-03-13T02:28:38;95810.56;;;3.90;70.09
12757;BME280;31601;48.042;12.240;2023-03-13T02:31:05;95799.13;;;3.83;70.26
12757;BME280;31601;48.042;12.240;2023-03-13T02:33:35;95798.94;;;3.76;70.34
12757;BME280;31601;48.042;12.240;2023-03-13T02:36:02;95801.69;;;3.74;70.23
12757;BME280;31601;48.042;12.240;2023-03-13T02:38:32;95810.81;;;3.79;70.15
12757;BME280;31601;48.042;12.240;2023-03-13T02:41:01;95813.72;;;3.75;70.07
12757;BME280;31601;48.042;12.240;2023-03-13T02:43:33;95804.53;;;3.63;69.59
12757;BME280;31601;48.042;12.240;2023-03-13T02:46:01;95806.34;;;3.45;69.80
12757;BME280;31601;48.042;12.240;2023-03-13T02:48:33;95799.97;;;3.39;69.91
12757;BME280;31601;48.042;12.240;2023-03-13T02:51:02;95811.63;;;3.17;70.78
12757;BME280;31601;48.042;12.240;2023-03-13T02:53:30;95807.84;;;3.29;70.42
12757;BME280;31601;48.042;12.240;2023-03-13T02:55:58;95808.13;;;3.26;70.62
12757;BME280;31601;48.042;12.240;2023-03-13T02:58:24;95814.94;;;3.27;70.50
12757;BME280;31601;48.042;12.240;2023-03-13T03:00:52;95814.34;;;3.33;70.34
12757;BME280;31601;48.042;12.240;2023-03-13T03:03:19;95825.09;;;3.38;70.12
12757;BME280;31601;48.042;12.240;2023-03-13T03:05:45;95833.69;;;3.39;70.21
12757;BME280;31601;48.042;12.240;2023-03-13T03:08:12;95823.59;;;3.36;69.98
12757;BME280;31601;48.042;12.240;2023-03-13T03:10:38;95828.34;;;3.40;69.61
12757;BME280;31601;48.042;12.240;2023-03-13T03:13:04;95830.44;;;3.37;69.82
12757;BME280;31601;48.042;12.240;2023-03-13T03:15:31;95827.84;;;3.37;69.79
12757;BME280;31601;48.042;12.240;2023-03-13T03:17:58;95834.78;;;3.36;69.61
12757;BME280;31601;48.042;12.240;2023-03-13T03:20:25;95834.28;;;3.33;69.54
12757;BME280;31601;48.042;12.240;2023-03-13T03:22:51;95840.66;;;3.38;69.57
12757;BME280;31601;48.042;12.240;2023-03-13T03:25:18;95839.66;;;3.39;69.50
12757;BME280;31601;48.042;12.240;2023-03-13T03:27:44;95835.31;;;3.40;69.99
12757;BME280;31601;48.042;12.240;2023-03-13T03:30:11;95852.34;;;3.43;69.93
12757;BME280;31601;48.042;12.240;2023-03-13T03:32:38;95842.13;;;3.41;70.00
12757;BME280;31601;48.042;12.240;2023-03-13T03:35:06;95843.53;;;3.35;70.69
12757;BME280;31601;48.042;12.240;2023-03-13T03:37:33;95854.34;;;3.49;70.44
12757;BME280;31601;48.042;12.240;2023-03-13T03:39:59;95847.91;;;3.53;70.50
12757;BME280;31601;48.042;12.240;2023-03-13T03:42:25;95854.28;;;3.58;70.33
12757;BME280;31601;48.042;12.240;2023-03-13T03:44:52;95847.81;;;3.63;70.56
12757;BME280;31601;48.042;12.240;2023-03-13T03:47:18;95854.34;;;3.67;70.47
12757;BME280;31601;48.042;12.240;2023-03-13T03:49:45;95850.34;;;3.72;70.26
12757;BME280;31601;48.042;12.240;2023-03-13T03:52:12;95851.00;;;3.74;70.75
12757;BME280;31601;48.042;12.240;2023-03-13T03:54:39;95855.22;;;3.75;70.81
12757;BME280;31601;48.042;12.240;2023-03-13T03:57:05;95851.56;;;3.86;70.92
12757;BME280;31601;48.042;12.240;2023-03-13T03:59:32;95838.16;;;3.91;70.78
12757;BME280;31601;48.042;12.240;2023-03-13T04:01:58;95838.44;;;3.88;70.98
12757;BME280;31601;48.042;12.240;2023-03-13T04:04:24;95840.66;;;3.83;70.98
12757;BME280;31601;48.042;12.240;2023-03-13T04:06:51;95832.28;;;3.89;71.02
12757;BME280;31601;48.042;12.240;2023-03-13T04:09:19;95844.13;;;3.91;70.41
12757;BME280;31601;48.042;12.240;2023-03-13T04:11:46;95843.34;;;3.91;71.02
12757;BME280;31601;48.042;12.240;2023-03-13T04:14:12;95819.22;;;3.99;71.07
12757;BME280;31601;48.042;12.240;2023-03-13T04:16:38;95814.53;;;4.02;70.81
12757;BME280;31601;48.042;12.240;2023-03-13T04:19:05;95810.50;;;4.08;70.52
12757;BME280;31601;48.042;12.240;2023-03-13T04:21:31;95807.91;;;4.08;71.19
12757;BME280;31601;48.042;12.240;2023-03-13T04:23:59;95805.16;;;4.09;71.10
12757;BME280;31601;48.042;12.240;2023-03-13T04:26:27;95812.03;;;4.19;70.91
12757;BME280;31601;48.042;12.240;2023-03-13T04:28:53;95803.97;;;4.30;70.74
12757;BME280;31601;48.042;12.240;2023-03-13T04:31:20;95811.75;;;4.30;70.81
12757;BME280;31601;48.042;12.240;2023-03-13T04:33:46;95788.41;;;4.38;71.01
12757;BME280;31601;48.042;12.240;2023-03-13T04:36:12;95799.16;;;4.43;70.94
12757;BME280;31601;48.042;12.240;2023-03-13T04:38:39;95785.88;;;4.46;70.98
12757;BME280;31601;48.042;12.240;2023-03-13T04:41:05;95770.44;;;4.53;71.19
12757;BME280;31601;48.042;12.240;2023-03-13T04:43:33;95781.03;;;4.60;71.07
12757;BME280;31601;48.042;12.240;2023-03-13T04:45:59;95778.25;;;4.61;70.89
12757;BME280;31601;48.042;12.240;2023-03-13T04:48:26;95785.75;;;4.64;71.06
12757;BME280;31601;48.042;12.240;2023-03-13T04:50:52;95774.25;;;4.75;71.13
12757;BME280;31601;48.042;12.240;2023-03-13T04:53:19;95778.31;;;4.78;71.03
12757;BME280;31601;48.042;12.240;2023-03-13T04:55:47;95779.97;;;4.79;71.12
12757;BME280;31601;48.042;12.240;2023-03-13T04:58:13;95779.44;;;4.75;71.02
12757;BME280;31601;48.042;12.240;2023-03-13T05:00:41;95772.50;;;4.84;70.67
12757;BME280;31601;48.042;12.240;2023-03-13T05:03:08;95768.59;;;4.88;70.65
12757;BME280;31601;48.042;12.240;2023-03-13T05:05:34;95763.72;;;4.85;70.98
12757;BME280;31601;48.042;12.240;2023-03-13T05:08:01;95764.22;;;4.89;70.70
12757;BME280;31601;48.042;12.240;2023-03-13T05:10:27;95759.66;;;4.82;70.54
12757;BME280;31601;48.042;12.240;2023-03-13T05:12:54;95748.28;;;4.92;70.41
12757;BME280;31601;48.042;12.240;2023-03-13T05:15:20;95744.69;;;4.84;70.51
12757;BME280;31601;48.042;12.240;2023-03-13T05:17:48;95740.66;;;4.90;70.31
12757;BME280;31601;48.042;12.240;2023-03-13T05:20:15;95725.38;;;4.87;70.15
12757;BME280;31601;48.042;12.240;2023-03-13T05:22:41;95720.03;;;4.89;70.38
12757;BME280;31601;48.042;12.240;2023-03-13T05:25:08;95729.47;;;4.90;69.94
12757;BME280;31601;48.042;12.240;2023-03-13T05:27:34;95716.78;;;4.87;70.11
12757;BME280;31601;48.042;12.240;2023-03-13T05:30:01;95713.03;;;4.89;70.34
12757;BME280;31601;48.042;12.240;2023-03-13T05:32:27;95709.63;;;4.89;70.55
12757;BME280;31601;48.042;12.240;2023-03-13T05:34:55;95711.09;;;4.91;70.31
12757;BME280;31601;48.042;12.240;2023-03-13T05:37:21;95704.59;;;4.95;70.55
12757;BME280;31601;48.042;12.240;2023-03-13T05:39:48;95707.03;;;5.05;70.78
12757;BME280;31601;48.042;12.240;2023-03-13T05:42:14;95715.47;;;5.15;70.23
12757;BME280;31601;48.042;12.240;2023-03-13T05:44:41;95711.91;;;5.00;70.47
12757;BME280;31601;48.042;12.240;2023-03-13T05:47:07;95704.25;;;4.90;71.07
12757;BME280;31601;48.042;12.240;2023-03-13T05:49:33;95710.59;;;5.12;70.32
12757;BME280;31601;48.042;12.240;2023-03-13T05:52:01;95698.28;;;5.14;70.30
12757;BME280;31601;48.042;12.240;2023-03-13T05:54:28;95698.59;;;5.11;70.50
12757;BME280;31601;48.042;12.240;2023-03-13T05:56:54;95693.72;;;5.16;70.38
12757;BME280;31601;48.042;12.240;2023-03-13T05:59:20;95681.34;;;5.35;69.70
12757;BME280;31601;48.042;12.240;2023-03-13T06:01:47;95672.06;;;5.32;69.59
12757;BME280;31601;48.042;12.240;2023-03-13T06:04:13;95675.16;;;5.36;69.75
12757;BME280;31601;48.042;12.240;2023-03-13T06:06:40;95689.94;;;5.44;69.72
12757;BME280;31601;48.042;12.240;2023-03-13T06:09:07;95683.25;;;5.57;69.54
12757;BME280;31601;48.042;12.240;2023-03-13T06:11:35;95670.59;;;5.46;69.35
12757;BME280;31601;48.042;12.240;2023-03-13T06:14:02;95674.47;;;5.59;69.38
12757;BME280;31601;48.042;12.240;2023-03-13T06:16:28;95665.00;;;5.74;69.18
12757;BME280;31601;48.042;12.240;2023-03-13T06:18:55;95673.75;;;5.81;68.83
12757;BME280;31601;48.042;12.240;2023-03-13T06:21:21;95667.72;;;5.89;68.70
12757;BME280;31601;48.042;12.240;2023-03-13T06:23:48;95664.31;;;5.97;69.08
12757;BME280;31601;48.042;12.240;2023-03-13T06:26:16;95672.41;;;6.02;69.24
12757;BME280;31601;48.042;12.240;2023-03-13T06:28:42;95662.63;;;6.12;68.93
12757;BME280;31601;48.042;12.240;2023-03-13T06:31:09;95658.00;;;6.22;68.14
12757;BME280;31601;48.042;12.240;2023-03-13T06:33:35;95668.50;;;6.06;68.38
12757;BME280;31601;48.042;12.240;2023-03-13T06:36:02;95673.97;;;6.19;68.08
12757;BME280;31601;48.042;12.240;2023-03-13T06:38:29;95658.47;;;6.26;68.21
12757;BME280;31601;48.042;12.240;2023-03-13T06:40:56;95662.34;;;6.30;67.92
12757;BME280;31601;48.042;12.240;2023-03-13T06:43:24;95652.97;;;6.52;67.70
12757;BME280;31601;48.042;12.240;2023-03-13T06:45:51;95633.09;;;6.51;67.39
12757;BME280;31601;48.042;12.240;2023-03-13T06:48:17;95648.91;;;6.18;68.66
12757;BME280;31601;48.042;12.240;2023-03-13T06:50:44;95634.19;;;6.34;67.33
12757;BME280;31601;48.042;12.240;2023-03-13T06:53:14;95625.00;;;6.38;67.65
12757;BME280;31601;48.042;12.240;2023-03-13T06:55:41;95636.91;;;6.63;67.28
12757;BME280;31601;48.042;12.240;2023-03-13T06:58:07;95637.66;;;6.49;67.63
12757;BME280;31601;48.042;12.240;2023-03-13T07:00:35;95619.34;;;6.80;67.06
12757;BME280;31601;48.042;12.240;2023-03-13T07:03:04;95634.03;;;6.81;67.20
12757;BME280;31601;48.042;12.240;2023-03-13T07:05:30;95635.28;;;6.86;66.71
12757;BME280;31601;48.042;12.240;2023-03-13T07:07:56;95622.81;;;6.96;65.95
12757;BME280;31601;48.042;12.240;2023-03-13T07:10:23;95632.91;;;6.76;66.55
12757;BME280;31601;48.042;12.240;2023-03-13T07:12:49;95638.47;;;6.96;66.15
12757;BME280;31601;48.042;12.240;2023-03-13T07:15:16;95626.88;;;7.13;65.91
12757;BME280;31601;48.042;12.240;2023-03-13T07:17:44;95612.69;;;7.16;65.38
12757;BME280;31601;48.042;12.240;2023-03-13T07:20:11;95641.34;;;6.78;66.62
12757;BME280;31601;48.042;12.240;2023-03-13T07:22:37;95616.81;;;7.10;66.27
12757;BME280;31601;48.042;12.240;2023-03-13T07:25:05;95631.00;;;7.31;65.54
12757;BME280;31601;48.042;12.240;2023-03-13T07:27:31;95641.59;;;6.91;66.67
12757;BME280;31601;48.042;12.240;2023-03-13T07:29:58;95640.88;;;6.97;67.00
12757;BME280;31601;48.042;12.240;2023-03-13T07:32:24;95648.72;;;6.97;67.10
12757;BME280;31601;48.042;12.240;2023-03-13T07:34:52;95653.63;;;7.15;66.41
12757;BME280;31601;48.042;12.240;2023-03-13T07:37:18;95650.69;;;7.33;66.32
12757;BME280;31601;48.042;12.240;2023-03-13T07:39:45;95661.16;;;7.48;65.63
12757;BME280;31601;48.042;12.240;2023-03-13T07:42:11;95644.34;;;7.51;65.05
12757;BME280;31601;48.042;12.240;2023-03-13T07:44:38;95655.75;;;7.50;65.51
12757;BME280;31601;48.042;12.240;2023-03-13T07:47:05;95641.16;;;7.41;65.88
12757;BME280;31601;48.042;12.240;2023-03-13T07:49:32;95648.53;;;7.37;66.34
12757;BME280;31601;48.042;12.240;2023-03-13T07:52:05;95644.75;;;7.40;66.71
12757;BME280;31601;48.042;12.240;2023-03-13T07:54:31;95642.59;;;7.58;65.88
12757;BME280;31601;48.042;12.240;2023-03-13T07:56:57;95648.66;;;7.59;66.19
12757;BME280;31601;48.042;12.240;2023-03-13T07:59:24;95637.13;;;7.68;66.00
12757;BME280;31601;48.042;12.240;2023-03-13T08:01:50;95637.03;;;7.61;66.97
12757;BME280;31601;48.042;12.240;2023-03-13T08:04:17;95634.88;;;7.65;66.91
12757;BME280;31601;48.042;12.240;2023-03-13T08:06:43;95649.38;;;7.52;67.36
12757;BME280;31601;48.042;12.240;2023-03-13T08:09:11;95645.41;;;7.71;67.37
12757;BME280;31601;48.042;12.240;2023-03-13T08:11:38;95639.00;;;7.89;66.54
12757;BME280;31601;48.042;12.240;2023-03-13T08:14:05;95645.31;;;7.95;66.84
12757;BME280;31601;48.042;12.240;2023-03-13T08:16:33;95624.41;;;8.10;66.33
12757;BME280;31601;48.042;12.240;2023-03-13T08:19:00;95628.19;;;8.07;66.57
12757;BME280;31601;48.042;12.240;2023-03-13T08:21:30;95633.41;;;7.92;67.37
12757;BME280;31601;48.042;12.240;2023-03-13T08:23:58;95631.50;;;8.16;66.61
12757;BME280;31601;48.042;12.240;2023-03-13T08:26:27;95633.09;;;8.32;66.01
12757;BME280;31601;48.042;12.240;2023-03-13T08:28:56;95626.59;;;8.28;66.06
12757;BME280;31601;48.042;12.240;2023-03-13T08:31:24;95603.78;;;8.36;65.63
12757;BME280;31601;48.042;12.240;2023-03-13T08:33:51;95596.69;;;8.45;65.88
12757;BME280;31601;48.042;12.240;2023-03-13T08:36:20;95570.91;;;8.27;66.09
12757;BME280;31601;48.042;12.240;2023-03-13T08:38:48;95591.78;;;8.42;66.54
12757;BME280;31601;48.042;12.240;2023-03-13T08:41:16;95579.56;;;8.28;67.60
12757;BME280;31601;48.042;12.240;2023-03-13T08:43:44;95574.34;;;8.28;67.59
12757;BME280;31601;48.042;12.240;2023-03-13T08:46:11;95580.13;;;8.23;68.71
12757;BME280;31601;48.042;12.240;2023-03-13T08:48:38;95583.69;;;8.37;68.46
12757;BME280;31601;48.042;12.240;2023-03-13T08:51:06;95594.50;;;8.70;67.20
12757;BME280;31601;48.042;12.240;2023-03-13T08:53:34;95572.72;;;9.13;66.72
12757;BME280;31601;48.042;12.240;2023-03-13T08:56:02;95582.94;;;9.36;66.19
12757;BME280;31601;48.042;12.240;2023-03-13T08:58:30;95578.78;;;9.48;65.86
12757;BME280;31601;48.042;12.240;2023-03-13T09:01:02;95595.81;;;9.73;65.04
12757;BME280;31601;48.042;12.240;2023-03-13T09:03:28;95586.09;;;9.66;65.37
12757;BME280;31601;48.042;12.240;2023-03-13T09:05:55;95583.56;;;9.86;64.32
12757;BME280;31601;48.042;12.240;2023-03-13T09:08:22;95595.78;;;10.14;63.65
12757;BME280;31601;48.042;12.240;2023-03-13T09:10:54;95621.88;;;9.53;63.12
12757;BME280;31601;48.042;12.240;2023-03-13T09:13:20;95624.97;;;9.63;62.65
12757;BME280;31601;48.042;12.240;2023-03-13T09:15:53;95614.41;;;9.49;63.65
12757;BME280;31601;48.042;12.240;2023-03-13T09:18:20;95616.03;;;9.85;62.82
12757;BME280;31601;48.042;12.240;2023-03-13T09:20:47;95626.25;;;9.74;63.28
12757;BME280;31601;48.042;12.240;2023-03-13T09:23:13;95623.03;;;9.78;63.77
12757;BME280;31601;48.042;12.240;2023-03-13T09:25:40;95611.41;;;9.88;64.10
12757;BME280;31601;48.042;12.240;2023-03-13T09:28:06;95604.09;;;10.25;63.11
12757;BME280;31601;48.042;12.240;2023-03-13T09:30:33;95582.38;;;10.37;62.56
12757;BME280;31601;48.042;12.240;2023-03-13T09:32:59;95593.09;;;10.49;62.34
12757;BME280;31601;48.042;12.240;2023-03-13T09:35:27;95588.66;;;10.56;61.94
12757;BME280;31601;48.042;12.240;2023-03-13T09:37:54;95578.41;;;10.88;61.07
12757;BME280;31601;48.042;12.240;2023-03-13T09:40:23;95558.81;;;11.11;60.89
12757;BME280;31601;48.042;12.240;2023-03-13T09:42:52;95568.47;;;11.31;59.88
12757;BME280;31601;48.042;12.240;2023-03-13T09:45:27;95573.13;;;11.42;59.67
12757;BME280;31601;48.042;12.240;2023-03-13T09:48:01;95570.84;;;11.65;59.26
12757;BME280;31601;48.042;12.240;2023-03-13T09:50:33;95575.19;;;11.98;59.08
12757;BME280;31601;48.042;12.240;2023-03-13T09:53:04;95569.91;;;12.05;57.64
12757;BME280;31601;48.042;12.240;2023-03-13T09:55:34;95568.56;;;12.34;57.11
12757;BME280;31601;48.042;12.240;2023-03-13T09:58:07;95553.59;;;12.67;56.37
12757;BME280;31601;48.042;12.240;2023-03-13T10:00:38;95552.19;;;12.64;56.08
12757;BME280;31601;48.042;12.240;2023-03-13T10:03:11;95537.81;;;12.60;55.28
12757;BME280;31601;48.042;12.240;2023-03-13T10:05:46;95554.44;;;12.29;54.42
12757;BME280;31601;48.042;12.240;2023-03-13T10:08:16;95544.47;;;12.38;55.31
12757;BME280;31601;48.042;12.240;2023-03-13T10:10:46;95538.66;;;12.29;54.67
12757;BME280;31601;48.042;12.240;2023-03-13T10:13:19;95548.84;;;12.12;54.59
12757;BME280;31601;48.042;12.240;2023-03-13T10:15:50;95541.38;;;12.09;55.17
12757;BME280;31601;48.042;12.240;2023-03-13T10:18:20;95534.38;;;12.34;55.32
12757;BME280;31601;48.042;12.240;2023-03-13T10:20:50;95522.31;;;12.52;55.28
12757;BME280;31601;48.042;12.240;2023-03-13T10:23:21;95523.66;;;12.61;53.75
12757;BME280;31601;48.042;12.240;2023-03-13T10:25:51;95517.25;;;12.76;54.96
12757;BME280;31601;48.042;12.240;2023-03-13T10:28:18;95520.78;;;12.95;54.18
12757;BME280;31601;48.042;12.240;2023-03-13T10:30:48;95515.44;;;13.01;54.10
12757;BME280;31601;48.042;12.240;2023-03-13T10:33:24;95523.69;;;13.30;54.01
12757;BME280;31601;48.042;12.240;2023-03-13T10:36:04;95509.94;;;13.47;52.90
12757;BME280;31601;48.042;12.240;2023-03-13T10:38:33;95509.94;;;13.65;52.97
12757;BME280;31601;48.042;12.240;2023-03-13T10:41:06;95512.72;;;13.89;51.69
12757;BME280;31601;48.042;12.240;2023-03-13T10:43:34;95495.69;;;14.03;50.95
12757;BME280;31601;48.042;12.240;2023-03-13T10:46:01;95502.00;;;14.02;49.80
12757;BME280;31601;48.042;12.240;2023-03-13T10:48:29;95479.94;;;14.27;49.52
12757;BME280;31601;48.042;12.240;2023-03-13T10:51:02;95486.88;;;14.51;51.26
12757;BME280;31601;48.042;12.240;2023-03-13T10:53:32;95481.69;;;14.75;47.37
12757;BME280;31601;48.042;12.240;2023-03-13T10:56:02;95493.97;;;15.17;46.73
12757;BME280;31601;48.042;12.240;2023-03-13T10:58:33;95485.41;;;15.50;45.94
12757;BME280;31601;48.042;12.240;2023-03-13T11:01:15;95490.38;;;15.58;46.20
12757;BME280;31601;48.042;12.240;2023-03-13T11:03:43;95479.81;;;15.99;44.94
12757;BME280;31601;48.042;12.240;2023-03-13T11:06:23;95484.03;;;16.29;45.07
12757;BME280;31601;48.042;12.240;2023-03-13T11:08:58;95477.53;;;16.37;44.63
12757;BME280;31601;48.042;12.240;2023-03-13T11:11:25;95479.41;;;16.53;45.07
12757;BME280;31601;48.042;12.240;2023-03-13T11:14:05;95461.75;;;16.59;45.14
12757;BME280;31601;48.042;12.240;2023-03-13T11:16:36;95465.47;;;16.75;44.74
12757;BME280;31601;48.042;12.240;2023-03-13T11:19:27;95463.63;;;16.92;44.57
12757;BME280;31601;48.042;12.240;2023-03-13T11:22:04;95463.19;;;16.33;43.96
12757;BME280;31601;48.042;12.240;2023-03-13T11:24:39;95448.91;;;16.51;43.85
12757;BME280;31601;48.042;12.240;2023-03-13T11:27:15;95438.97;;;16.58;44.59
12757;BME280;31601;48.042;12.240;2023-03-13T11:29:55;95426.59;;;16.63;44.81
12757;BME280;31601;48.042;12.240;2023-03-13T11:32:30;95422.88;;;15.97;45.15
12757;BME280;31601;48.042;12.240;2023-03-13T11:35:01;95418.53;;;15.90;46.14
12757;BME280;31601;48.042;12.240;2023-03-13T11:37:32;95418.09;;;16.10;46.16
12757;BME280;31601;48.042;12.240;2023-03-13T11:40:08;95413.28;;;16.24;45.93
12757;BME280;31601;48.042;12.240;2023-03-13T11:42:55;95420.81;;;16.33;45.42
12757;BME280;31601;48.042;12.240;2023-03-13T11:45:45;95414.97;;;16.14;44.05
12757;BME280;31601;48.042;12.240;2023-03-13T11:48:21;95416.59;;;16.32;44.55
12757;BME280;31601;48.042;12.240;2023-03-13T11:50:54;95421.66;;;16.33;43.04
12757;BME280;31601;48.042;12.240;2023-03-13T11:53:45;95424.69;;;16.42;42.86
12757;BME280;31601;48.042;12.240;2023-03-13T11:56:20;95428.97;;;16.14;44.19
12757;BME280;31601;48.042;12.240;2023-03-13T11:58:58;95440.75;;;15.37;43.91
12757;BME280;31601;48.042;12.240;2023-03-13T12:01:32;95438.06;;;15.49;44.85
12757;BME280;31601;48.042;12.240;2023-03-13T12:04:03;95431.03;;;15.14;44.38
12757;BME280;31601;48.042;12.240;2023-03-13T12:06:34;95420.31;;;15.73;45.41
12757;BME280;31601;48.042;12.240;2023-03-13T12:09:05;95404.59;;;15.66;43.87
12757;BME280;31601;48.042;12.240;2023-03-13T12:11:39;95390.91;;;15.69;44.00
12757;BME280;31601;48.042;12.240;2023-03-13T12:14:12;95372.38;;;16.15;44.47
12757;BME280;31601;48.042;12.240;2023-03-13T12:16:42;95368.28;;;16.41;43.16
12757;BME280;31601;48.042;12.240;2023-03-13T12:19:12;95368.69;;;16.50;42.80
12757;BME280;31601;48.042;12.240;2023-03-13T12:21:44;95360.34;;;16.58;43.52
12757;BME280;31601;48.042;12.240;2023-03-13T12:24:19;95352.44;;;16.63;42.33
12757;BME280;31601;48.042;12.240;2023-03-13T12:26:49;95345.94;;;16.88;42.79
12757;BME280;31601;48.042;12.240;2023-03-13T12:29:26;95334.44;;;16.99;42.40
12757;BME280;31601;48.042;12.240;2023-03-13T12:31:56;95324.75;;;16.88;42.25
12757;BME280;31601;48.042;12.240;2023-03-13T12:34:28;95319.53;;;16.76;41.18
12757;BME280;31601;48.042;12.240;2023-03-13T12:36:58;95316.88;;;16.93;40.10
12757;BME280;31601;48.042;12.240;2023-03-13T12:39:34;95316.44;;;17.02;41.88
12757;BME280;31601;48.042;12.240;2023-03-13T12:42:16;95312.16;;;17.00;40.89
12757;BME280;31601;48.042;12.240;2023-03-13T12:44:45;95317.72;;;17.21;40.30
12757;BME280;31601;48.042;12.240;2023-03-13T12:47:15;95312.03;;;17.34;41.10
12757;BME280;31601;48.042;12.240;2023-03-13T12:50:05;95298.25;;;17.60;40.71
12757;BME280;31601;48.042;12.240;2023-03-13T12:52:48;95304.47;;;17.76;40.44
12757;BME280;31601;48.042;12.240;2023-03-13T12:55:28;95290.44;;;18.07;39.86
12757;BME280;31601;48.042;12.240;2023-03-13T12:58:09;95289.63;;;18.45;38.89
12757;BME280;31601;48.042;12.240;2023-03-13T13:00:40;95283.81;;;18.48;38.51
12757;BME280;31601;48.042;12.240;2023-03-13T13:03:18;95283.16;;;18.78;39.10
12757;BME280;31601;48.042;12.240;2023-03-13T13:06:04;95274.50;;;18.98;38.30